sensor_id;sensor_type;location;lat;lon;timestamp;P1;durP1;ratioP1;P2;durP2;ratioP2
8066;SDS011;4076;48.076;9.118;2023-03-05T00:01:13;25.27;;;13.30;;
8066;SDS011;4076;48.076;9.118;2023-03-05T00:03:44;23.10;;;13.20;;
8066;SDS011;4076;48.076;9.118;2023-03-05T00:06:10;23.40;;;13.17;;
8066;SDS011;4076;48.076;9.118;2023-03-05T00:08:36;18.53;;;10.50;;
8066;SDS011;4076;48.076;9.118;2023-03-05T00:11:06;22.97;;;15.47;;
8066;SDS011;4076;48.076;9.118;2023-03-05T00:13:32;24.30;;;13.27;;
8066;SDS011;4076;48.076;9.118;2023-03-05T00:16:01;17.07;;;10.23;;
8066;SDS011;4076;48.076;9.118;2023-03-05T00:18:31;25.33;;;13.13;;
8066;SDS011;4076;48.076;9.118;2023-03-05T00:20:56;25.13;;;11.73;;
8066;SDS011;4076;48.076;9.118;2023-03-05T00:23:22;18.50;;;10.73;;
8066;SDS011;4076;48.076;9.118;2023-03-05T00:25:48;25.33;;;13.63;;
8066;SDS011;4076;48.076;9.118;2023-03-05T00:28:13;20.30;;;10.30;;
8066;SDS011;4076;48.076;9.118;2023-03-05T00:30:39;26.60;;;12.83;;
8066;SDS011;4076;48.076;9.118;2023-03-05T00:33:05;25.17;;;14.90;;
8066;SDS011;4076;48.076;9.118;2023-03-05T00:35:31;24.43;;;12.13;;
8066;SDS011;4076;48.076;9.118;2023-03-05T00:37:56;21.30;;;11.10;;
8066;SDS011;4076;48.076;9.118;2023-03-05T00:40:22;25.10;;;12.50;;
8066;SDS011;4076;48.076;9.118;2023-03-05T00:42:47;23.97;;;13.20;;
8066;SDS011;4076;48.076;9.118;2023-03-05T00:45:13;14.47;;;9.63;;
8066;SDS011;4076;48.076;9.118;2023-03-05T00:47:38;17.67;;;10.03;;
8066;SDS011;4076;48.076;9.118;2023-03-05T00:50:04;15.80;;;9.47;;
8066;SDS011;4076;48.076;9.118;2023-03-05T00:52:31;15.83;;;9.80;;
8066;SDS011;4076;48.076;9.118;2023-03-05T00:54:56;19.40;;;9.47;;
8066;SDS011;4076;48.076;9.118;2023-03-05T00:57:22;30.30;;;14.57;;
8066;SDS011;4076;48.076;9.118;2023-03-05T00:59:47;18.73;;;11.27;;
8066;SDS011;4076;48.076;9.118;2023-03-05T01:02:13;21.83;;;11.37;;
8066;SDS011;4076;48.076;9.118;2023-03-05T01:04:39;20.90;;;12.87;;
8066;SDS011;4076;48.076;9.118;2023-03-05T01:07:05;19.47;;;11.23;;
8066;SDS011;4076;48.076;9.118;2023-03-05T01:09:31;17.50;;;11.13;;
8066;SDS011;4076;48.076;9.118;2023-03-05T01:11:56;20.60;;;11.80;;
8066;SDS011;4076;48.076;9.118;2023-03-05T01:14:22;18.40;;;10.10;;
8066;SDS011;4076;48.076;9.118;2023-03-05T01:16:48;18.10;;;10.73;;
8066;SDS011;4076;48.076;9.118;2023-03-05T01:19:14;16.67;;;9.57;;
8066;SDS011;4076;48.076;9.118;2023-03-05T01:21:40;23.60;;;13.13;;
8066;SDS011;4076;48.076;9.118;2023-03-05T01:24:07;19.30;;;12.20;;
8066;SDS011;4076;48.076;9.118;2023-03-05T01:26:32;16.43;;;7.97;;
8066;SDS011;4076;48.076;9.118;2023-03-05T01:28:59;20.47;;;10.87;;
8066;SDS011;4076;48.076;9.118;2023-03-05T01:31:25;21.77;;;11.43;;
8066;SDS011;4076;48.076;9.118;2023-03-05T01:33:51;21.73;;;13.27;;
8066;SDS011;4076;48.076;9.118;2023-03-05T01:36:18;25.17;;;12.40;;
8066;SDS011;4076;48.076;9.118;2023-03-05T01:38:45;23.93;;;11.43;;
8066;SDS011;4076;48.076;9.118;2023-03-05T01:41:12;16.80;;;9.37;;
8066;SDS011;4076;48.076;9.118;2023-03-05T01:43:38;12.63;;;9.03;;
8066;SDS011;4076;48.076;9.118;2023-03-05T01:48:49;21.87;;;11.60;;
8066;SDS011;4076;48.076;9.118;2023-03-05T01:51:26;22.77;;;12.00;;
8066;SDS011;4076;48.076;9.118;2023-03-05T01:53:53;14.10;;;8.40;;
8066;SDS011;4076;48.076;9.118;2023-03-05T01:56:22;18.10;;;8.60;;
8066;SDS011;4076;48.076;9.118;2023-03-05T01:58:48;14.60;;;8.70;;
8066;SDS011;4076;48.076;9.118;2023-03-05T02:01:15;14.27;;;8.47;;
8066;SDS011;4076;48.076;9.118;2023-03-05T02:03:41;15.20;;;8.80;;
8066;SDS011;4076;48.076;9.118;2023-03-05T02:06:06;20.23;;;10.50;;
8066;SDS011;4076;48.076;9.118;2023-03-05T02:08:32;22.60;;;11.60;;
8066;SDS011;4076;48.076;9.118;2023-03-05T02:10:58;17.97;;;10.30;;
8066;SDS011;4076;48.076;9.118;2023-03-05T02:13:25;16.03;;;9.37;;
8066;SDS011;4076;48.076;9.118;2023-03-05T02:15:53;22.63;;;12.10;;
8066;SDS011;4076;48.076;9.118;2023-03-05T02:18:22;22.00;;;11.40;;
8066;SDS011;4076;48.076;9.118;2023-03-05T02:20:52;24.03;;;11.50;;
8066;SDS011;4076;48.076;9.118;2023-03-05T02:23:21;20.33;;;11.57;;
8066;SDS011;4076;48.076;9.118;2023-03-05T02:25:49;15.77;;;10.33;;
8066;SDS011;4076;48.076;9.118;2023-03-05T02:28:25;24.40;;;11.73;;
8066;SDS011;4076;48.076;9.118;2023-03-05T02:31:06;21.00;;;9.80;;
8066;SDS011;4076;48.076;9.118;2023-03-05T02:33:34;19.60;;;8.07;;
8066;SDS011;4076;48.076;9.118;2023-03-05T02:35:59;15.40;;;10.10;;
8066;SDS011;4076;48.076;9.118;2023-03-05T02:38:25;19.73;;;11.47;;
8066;SDS011;4076;48.076;9.118;2023-03-05T02:40:50;28.67;;;10.50;;
8066;SDS011;4076;48.076;9.118;2023-03-05T02:43:16;20.47;;;10.27;;
8066;SDS011;4076;48.076;9.118;2023-03-05T02:45:42;20.97;;;12.63;;
8066;SDS011;4076;48.076;9.118;2023-03-05T02:48:07;19.73;;;8.93;;
8066;SDS011;4076;48.076;9.118;2023-03-05T02:50:33;14.43;;;7.83;;
8066;SDS011;4076;48.076;9.118;2023-03-05T02:52:59;31.20;;;12.30;;
8066;SDS011;4076;48.076;9.118;2023-03-05T02:55:25;18.87;;;9.40;;
8066;SDS011;4076;48.076;9.118;2023-03-05T02:57:50;17.57;;;9.07;;
8066;SDS011;4076;48.076;9.118;2023-03-05T03:00:16;23.70;;;12.70;;
8066;SDS011;4076;48.076;9.118;2023-03-05T03:02:42;24.50;;;13.73;;
8066;SDS011;4076;48.076;9.118;2023-03-05T03:05:07;37.13;;;16.70;;
8066;SDS011;4076;48.076;9.118;2023-03-05T03:07:33;23.80;;;14.47;;
8066;SDS011;4076;48.076;9.118;2023-03-05T03:10:00;24.10;;;13.23;;
8066;SDS011;4076;48.076;9.118;2023-03-05T03:12:26;32.00;;;13.80;;
8066;SDS011;4076;48.076;9.118;2023-03-05T03:14:52;21.10;;;11.87;;
8066;SDS011;4076;48.076;9.118;2023-03-05T03:17:17;26.40;;;12.23;;
8066;SDS011;4076;48.076;9.118;2023-03-05T03:19:44;23.27;;;13.97;;
8066;SDS011;4076;48.076;9.118;2023-03-05T03:22:10;25.90;;;12.73;;
8066;SDS011;4076;48.076;9.118;2023-03-05T03:24:38;23.57;;;12.87;;
8066;SDS011;4076;48.076;9.118;2023-03-05T03:27:05;21.00;;;12.10;;
8066;SDS011;4076;48.076;9.118;2023-03-05T03:29:30;22.50;;;13.33;;
8066;SDS011;4076;48.076;9.118;2023-03-05T03:31:56;23.60;;;12.93;;
8066;SDS011;4076;48.076;9.118;2023-03-05T03:34:22;25.33;;;12.53;;
8066;SDS011;4076;48.076;9.118;2023-03-05T03:36:48;29.03;;;13.33;;
8066;SDS011;4076;48.076;9.118;2023-03-05T03:39:14;26.07;;;14.40;;
8066;SDS011;4076;48.076;9.118;2023-03-05T03:41:41;28.47;;;14.97;;
8066;SDS011;4076;48.076;9.118;2023-03-05T03:44:11;20.03;;;10.60;;
8066;SDS011;4076;48.076;9.118;2023-03-05T03:46:38;23.00;;;10.97;;
8066;SDS011;4076;48.076;9.118;2023-03-05T03:49:05;37.30;;;15.50;;
8066;SDS011;4076;48.076;9.118;2023-03-05T03:51:34;29.50;;;14.20;;
8066;SDS011;4076;48.076;9.118;2023-03-05T03:54:00;35.50;;;16.60;;
8066;SDS011;4076;48.076;9.118;2023-03-05T03:56:26;19.70;;;13.90;;
8066;SDS011;4076;48.076;9.118;2023-03-05T03:58:52;27.63;;;12.50;;
8066;SDS011;4076;48.076;9.118;2023-03-05T04:01:21;23.77;;;14.23;;
8066;SDS011;4076;48.076;9.118;2023-03-05T04:03:47;18.10;;;9.20;;
8066;SDS011;4076;48.076;9.118;2023-03-05T04:06:12;18.63;;;10.70;;
8066;SDS011;4076;48.076;9.118;2023-03-05T04:08:38;22.87;;;13.60;;
8066;SDS011;4076;48.076;9.118;2023-03-05T04:11:04;25.93;;;13.60;;
8066;SDS011;4076;48.076;9.118;2023-03-05T04:13:30;24.43;;;14.60;;
8066;SDS011;4076;48.076;9.118;2023-03-05T04:15:56;21.83;;;12.00;;
8066;SDS011;4076;48.076;9.118;2023-03-05T04:18:22;29.97;;;14.37;;
8066;SDS011;4076;48.076;9.118;2023-03-05T04:20:48;34.87;;;20.53;;
8066;SDS011;4076;48.076;9.118;2023-03-05T04:23:14;33.10;;;17.80;;
8066;SDS011;4076;48.076;9.118;2023-03-05T04:25:40;26.53;;;14.53;;
8066;SDS011;4076;48.076;9.118;2023-03-05T04:28:05;26.93;;;9.70;;
8066;SDS011;4076;48.076;9.118;2023-03-05T04:30:31;21.37;;;11.30;;
8066;SDS011;4076;48.076;9.118;2023-03-05T04:32:57;27.13;;;12.30;;
8066;SDS011;4076;48.076;9.118;2023-03-05T04:35:22;21.60;;;13.40;;
8066;SDS011;4076;48.076;9.118;2023-03-05T04:37:48;23.00;;;12.90;;
8066;SDS011;4076;48.076;9.118;2023-03-05T04:40:14;25.47;;;11.93;;
8066;SDS011;4076;48.076;9.118;2023-03-05T04:42:40;22.87;;;11.87;;
8066;SDS011;4076;48.076;9.118;2023-03-05T04:45:06;22.80;;;11.57;;
8066;SDS011;4076;48.076;9.118;2023-03-05T04:47:32;36.27;;;16.43;;
8066;SDS011;4076;48.076;9.118;2023-03-05T04:49:58;27.87;;;13.73;;
8066;SDS011;4076;48.076;9.118;2023-03-05T04:52:24;26.70;;;14.70;;
8066;SDS011;4076;48.076;9.118;2023-03-05T04:54:49;25.20;;;12.33;;
8066;SDS011;4076;48.076;9.118;2023-03-05T04:57:15;20.07;;;11.70;;
8066;SDS011;4076;48.076;9.118;2023-03-05T04:59:41;19.57;;;10.27;;
8066;SDS011;4076;48.076;9.118;2023-03-05T05:02:06;21.20;;;13.93;;
8066;SDS011;4076;48.076;9.118;2023-03-05T05:04:32;20.33;;;12.07;;
8066;SDS011;4076;48.076;9.118;2023-03-05T05:06:57;23.50;;;11.90;;
8066;SDS011;4076;48.076;9.118;2023-03-05T05:09:23;19.10;;;10.93;;
8066;SDS011;4076;48.076;9.118;2023-03-05T05:11:49;19.53;;;11.60;;
8066;SDS011;4076;48.076;9.118;2023-03-05T05:14:15;26.30;;;12.90;;
8066;SDS011;4076;48.076;9.118;2023-03-05T05:16:41;25.37;;;13.83;;
8066;SDS011;4076;48.076;9.118;2023-03-05T05:19:07;26.67;;;14.27;;
8066;SDS011;4076;48.076;9.118;2023-03-05T05:21:32;24.10;;;12.23;;
8066;SDS011;4076;48.076;9.118;2023-03-05T05:23:58;22.00;;;12.70;;
8066;SDS011;4076;48.076;9.118;2023-03-05T05:26:23;20.07;;;10.67;;
8066;SDS011;4076;48.076;9.118;2023-03-05T05:28:49;18.17;;;11.47;;
8066;SDS011;4076;48.076;9.118;2023-03-05T05:31:15;26.23;;;11.37;;
8066;SDS011;4076;48.076;9.118;2023-03-05T05:33:41;22.80;;;10.83;;
8066;SDS011;4076;48.076;9.118;2023-03-05T05:36:09;21.90;;;12.03;;
8066;SDS011;4076;48.076;9.118;2023-03-05T05:38:36;24.30;;;15.30;;
8066;SDS011;4076;48.076;9.118;2023-03-05T05:41:12;23.47;;;12.70;;
8066;SDS011;4076;48.076;9.118;2023-03-05T05:43:39;20.20;;;10.80;;
8066;SDS011;4076;48.076;9.118;2023-03-05T05:46:06;20.73;;;14.43;;
8066;SDS011;4076;48.076;9.118;2023-03-05T05:48:34;23.20;;;11.63;;
8066;SDS011;4076;48.076;9.118;2023-03-05T05:51:05;30.90;;;13.33;;
8066;SDS011;4076;48.076;9.118;2023-03-05T05:53:32;27.23;;;13.60;;
8066;SDS011;4076;48.076;9.118;2023-03-05T05:55:57;19.03;;;11.20;;
8066;SDS011;4076;48.076;9.118;2023-03-05T05:58:23;17.90;;;11.73;;
8066;SDS011;4076;48.076;9.118;2023-03-05T06:00:48;24.80;;;11.83;;
8066;SDS011;4076;48.076;9.118;2023-03-05T06:03:14;23.23;;;14.40;;
8066;SDS011;4076;48.076;9.118;2023-03-05T06:05:40;26.73;;;13.37;;
8066;SDS011;4076;48.076;9.118;2023-03-05T06:08:06;21.23;;;12.83;;
8066;SDS011;4076;48.076;9.118;2023-03-05T06:10:32;23.17;;;12.93;;
8066;SDS011;4076;48.076;9.118;2023-03-05T06:12:58;29.80;;;13.77;;
8066;SDS011;4076;48.076;9.118;2023-03-05T06:15:23;25.57;;;13.80;;
8066;SDS011;4076;48.076;9.118;2023-03-05T06:17:49;23.87;;;13.13;;
8066;SDS011;4076;48.076;9.118;2023-03-05T06:20:15;24.67;;;12.87;;
8066;SDS011;4076;48.076;9.118;2023-03-05T06:22:40;26.80;;;14.50;;
8066;SDS011;4076;48.076;9.118;2023-03-05T06:25:06;28.90;;;13.47;;
8066;SDS011;4076;48.076;9.118;2023-03-05T06:27:35;20.43;;;10.67;;
8066;SDS011;4076;48.076;9.118;2023-03-05T06:30:01;26.50;;;14.83;;
8066;SDS011;4076;48.076;9.118;2023-03-05T06:32:27;19.60;;;12.20;;
8066;SDS011;4076;48.076;9.118;2023-03-05T06:34:53;29.00;;;12.37;;
8066;SDS011;4076;48.076;9.118;2023-03-05T06:37:19;27.67;;;14.77;;
8066;SDS011;4076;48.076;9.118;2023-03-05T06:39:44;22.67;;;13.90;;
8066;SDS011;4076;48.076;9.118;2023-03-05T06:42:10;19.77;;;13.60;;
8066;SDS011;4076;48.076;9.118;2023-03-05T06:44:39;29.73;;;15.60;;
8066;SDS011;4076;48.076;9.118;2023-03-05T06:47:05;35.67;;;18.13;;
8066;SDS011;4076;48.076;9.118;2023-03-05T06:49:33;29.50;;;15.67;;
8066;SDS011;4076;48.076;9.118;2023-03-05T06:51:58;27.43;;;15.10;;
8066;SDS011;4076;48.076;9.118;2023-03-05T06:54:25;27.77;;;12.97;;
8066;SDS011;4076;48.076;9.118;2023-03-05T06:56:50;27.70;;;14.87;;
8066;SDS011;4076;48.076;9.118;2023-03-05T06:59:16;24.97;;;13.20;;
8066;SDS011;4076;48.076;9.118;2023-03-05T07:01:42;22.33;;;14.90;;
8066;SDS011;4076;48.076;9.118;2023-03-05T07:04:09;21.00;;;10.67;;
8066;SDS011;4076;48.076;9.118;2023-03-05T07:06:36;26.37;;;15.17;;
8066;SDS011;4076;48.076;9.118;2023-03-05T07:09:03;24.47;;;12.27;;
8066;SDS011;4076;48.076;9.118;2023-03-05T07:11:30;23.80;;;14.60;;
8066;SDS011;4076;48.076;9.118;2023-03-05T07:13:56;24.83;;;12.77;;
8066;SDS011;4076;48.076;9.118;2023-03-05T07:16:23;31.37;;;14.40;;
8066;SDS011;4076;48.076;9.118;2023-03-05T07:18:53;25.40;;;14.90;;
8066;SDS011;4076;48.076;9.118;2023-03-05T07:21:21;20.77;;;13.00;;
8066;SDS011;4076;48.076;9.118;2023-03-05T07:23:48;27.50;;;13.73;;
8066;SDS011;4076;48.076;9.118;2023-03-05T07:26:14;22.50;;;15.00;;
8066;SDS011;4076;48.076;9.118;2023-03-05T07:28:40;28.30;;;17.27;;
8066;SDS011;4076;48.076;9.118;2023-03-05T07:31:07;22.03;;;11.97;;
8066;SDS011;4076;48.076;9.118;2023-03-05T07:33:36;20.60;;;11.53;;
8066;SDS011;4076;48.076;9.118;2023-03-05T07:36:02;17.70;;;11.37;;
8066;SDS011;4076;48.076;9.118;2023-03-05T07:38:29;25.07;;;12.07;;
8066;SDS011;4076;48.076;9.118;2023-03-05T07:40:55;28.93;;;13.53;;
8066;SDS011;4076;48.076;9.118;2023-03-05T07:43:21;21.40;;;12.70;;
8066;SDS011;4076;48.076;9.118;2023-03-05T07:45:46;24.83;;;13.47;;
8066;SDS011;4076;48.076;9.118;2023-03-05T07:48:16;23.67;;;13.00;;
8066;SDS011;4076;48.076;9.118;2023-03-05T07:50:45;30.03;;;14.87;;
8066;SDS011;4076;48.076;9.118;2023-03-05T07:53:11;22.30;;;11.87;;
8066;SDS011;4076;48.076;9.118;2023-03-05T07:55:46;20.63;;;10.37;;
8066;SDS011;4076;48.076;9.118;2023-03-05T07:58:12;24.93;;;12.60;;
8066;SDS011;4076;48.076;9.118;2023-03-05T08:00:38;25.50;;;15.30;;
8066;SDS011;4076;48.076;9.118;2023-03-05T08:03:04;20.03;;;10.70;;
8066;SDS011;4076;48.076;9.118;2023-03-05T08:05:31;22.80;;;13.07;;
8066;SDS011;4076;48.076;9.118;2023-03-05T08:07:57;19.37;;;12.80;;
8066;SDS011;4076;48.076;9.118;2023-03-05T08:10:22;24.90;;;15.40;;
8066;SDS011;4076;48.076;9.118;2023-03-05T08:12:48;32.53;;;16.33;;
8066;SDS011;4076;48.076;9.118;2023-03-05T08:15:13;33.37;;;17.33;;
8066;SDS011;4076;48.076;9.118;2023-03-05T08:17:39;105.77;;;55.87;;
8066;SDS011;4076;48.076;9.118;2023-03-05T08:20:05;33.80;;;19.20;;
8066;SDS011;4076;48.076;9.118;2023-03-05T08:22:34;65.47;;;38.70;;
8066;SDS011;4076;48.076;9.118;2023-03-05T08:25:01;53.07;;;25.40;;
8066;SDS011;4076;48.076;9.118;2023-03-05T08:27:27;28.93;;;15.27;;
8066;SDS011;4076;48.076;9.118;2023-03-05T08:29:53;29.30;;;16.17;;
8066;SDS011;4076;48.076;9.118;2023-03-05T08:32:18;22.60;;;11.60;;
8066;SDS011;4076;48.076;9.118;2023-03-05T08:34:44;20.63;;;11.63;;
8066;SDS011;4076;48.076;9.118;2023-03-05T08:37:09;21.83;;;11.47;;
8066;SDS011;4076;48.076;9.118;2023-03-05T08:39:35;26.77;;;14.73;;
8066;SDS011;4076;48.076;9.118;2023-03-05T08:42:01;36.60;;;17.20;;
8066;SDS011;4076;48.076;9.118;2023-03-05T08:44:27;23.00;;;14.33;;
8066;SDS011;4076;48.076;9.118;2023-03-05T08:46:53;25.23;;;12.03;;
8066;SDS011;4076;48.076;9.118;2023-03-05T08:49:18;22.33;;;13.63;;
8066;SDS011;4076;48.076;9.118;2023-03-05T08:51:44;23.93;;;13.53;;
8066;SDS011;4076;48.076;9.118;2023-03-05T08:54:09;18.43;;;12.33;;
8066;SDS011;4076;48.076;9.118;2023-03-05T08:56:35;16.57;;;11.07;;
8066;SDS011;4076;48.076;9.118;2023-03-05T08:59:01;18.70;;;11.10;;
8066;SDS011;4076;48.076;9.118;2023-03-05T09:01:28;17.67;;;11.13;;
8066;SDS011;4076;48.076;9.118;2023-03-05T09:03:55;32.87;;;14.77;;
8066;SDS011;4076;48.076;9.118;2023-03-05T09:06:24;21.87;;;10.87;;
8066;SDS011;4076;48.076;9.118;2023-03-05T09:08:50;19.80;;;11.00;;
8066;SDS011;4076;48.076;9.118;2023-03-05T09:11:16;18.90;;;11.97;;
8066;SDS011;4076;48.076;9.118;2023-03-05T09:13:42;20.60;;;14.20;;
8066;SDS011;4076;48.076;9.118;2023-03-05T09:16:14;17.10;;;11.03;;
8066;SDS011;4076;48.076;9.118;2023-03-05T09:18:41;19.67;;;13.13;;
8066;SDS011;4076;48.076;9.118;2023-03-05T09:21:11;21.17;;;12.57;;
8066;SDS011;4076;48.076;9.118;2023-03-05T09:23:39;20.70;;;12.70;;
8066;SDS011;4076;48.076;9.118;2023-03-05T09:26:06;18.83;;;11.00;;
8066;SDS011;4076;48.076;9.118;2023-03-05T09:28:33;22.77;;;12.17;;
8066;SDS011;4076;48.076;9.118;2023-03-05T09:31:02;25.13;;;14.97;;
8066;SDS011;4076;48.076;9.118;2023-03-05T09:33:30;20.50;;;12.00;;
8066;SDS011;4076;48.076;9.118;2023-03-05T09:35:57;25.43;;;11.83;;
8066;SDS011;4076;48.076;9.118;2023-03-05T09:38:23;22.97;;;12.20;;
8066;SDS011;4076;48.076;9.118;2023-03-05T09:41:06;17.53;;;9.40;;
8066;SDS011;4076;48.076;9.118;2023-03-05T09:43:48;22.70;;;15.13;;
8066;SDS011;4076;48.076;9.118;2023-03-05T09:46:51;19.90;;;12.20;;
8066;SDS011;4076;48.076;9.118;2023-03-05T09:52:21;17.47;;;10.00;;
8066;SDS011;4076;48.076;9.118;2023-03-05T09:54:55;18.93;;;10.20;;
8066;SDS011;4076;48.076;9.118;2023-03-05T09:57:23;16.40;;;9.30;;
8066;SDS011;4076;48.076;9.118;2023-03-05T09:59:58;16.50;;;10.17;;
8066;SDS011;4076;48.076;9.118;2023-03-05T10:02:33;18.37;;;10.40;;
8066;SDS011;4076;48.076;9.118;2023-03-05T10:07:45;15.67;;;9.63;;
8066;SDS011;4076;48.076;9.118;2023-03-05T10:10:26;39.40;;;22.67;;
8066;SDS011;4076;48.076;9.118;2023-03-05T10:13:01;39.07;;;19.70;;
8066;SDS011;4076;48.076;9.118;2023-03-05T10:15:46;13.83;;;10.30;;
8066;SDS011;4076;48.076;9.118;2023-03-05T10:21:12;14.93;;;10.20;;
8066;SDS011;4076;48.076;9.118;2023-03-05T10:23:48;10.33;;;8.30;;
8066;SDS011;4076;48.076;9.118;2023-03-05T10:32:04;11.93;;;7.13;;
8066;SDS011;4076;48.076;9.118;2023-03-05T10:35:09;12.57;;;6.00;;
8066;SDS011;4076;48.076;9.118;2023-03-05T10:37:55;15.27;;;8.30;;
8066;SDS011;4076;48.076;9.118;2023-03-05T10:45:52;11.97;;;7.20;;
8066;SDS011;4076;48.076;9.118;2023-03-05T10:48:31;21.23;;;10.63;;
8066;SDS011;4076;48.076;9.118;2023-03-05T10:51:12;10.73;;;6.63;;
8066;SDS011;4076;48.076;9.118;2023-03-05T10:53:51;19.73;;;9.30;;
8066;SDS011;4076;48.076;9.118;2023-03-05T10:56:21;17.73;;;8.40;;
8066;SDS011;4076;48.076;9.118;2023-03-05T10:58:49;9.30;;;6.50;;
8066;SDS011;4076;48.076;9.118;2023-03-05T11:06:51;17.63;;;11.63;;
8066;SDS011;4076;48.076;9.118;2023-03-05T11:09:18;50.27;;;19.23;;
8066;SDS011;4076;48.076;9.118;2023-03-05T11:14:39;18.63;;;9.53;;
8066;SDS011;4076;48.076;9.118;2023-03-05T11:17:24;15.43;;;9.87;;
8066;SDS011;4076;48.076;9.118;2023-03-05T11:20:44;10.87;;;7.73;;
8066;SDS011;4076;48.076;9.118;2023-03-05T11:25:59;23.40;;;11.30;;
8066;SDS011;4076;48.076;9.118;2023-03-05T11:28:38;18.43;;;10.03;;
8066;SDS011;4076;48.076;9.118;2023-03-05T11:31:23;18.47;;;9.67;;
8066;SDS011;4076;48.076;9.118;2023-03-05T11:41:36;19.73;;;12.50;;
8066;SDS011;4076;48.076;9.118;2023-03-05T11:44:14;10.53;;;7.10;;
8066;SDS011;4076;48.076;9.118;2023-03-05T11:46:42;12.57;;;7.87;;
8066;SDS011;4076;48.076;9.118;2023-03-05T11:49:11;11.03;;;7.33;;
8066;SDS011;4076;48.076;9.118;2023-03-05T11:54:18;12.10;;;8.40;;
8066;SDS011;4076;48.076;9.118;2023-03-05T11:56:49;12.70;;;8.83;;
8066;SDS011;4076;48.076;9.118;2023-03-05T11:59:17;19.60;;;10.07;;
8066;SDS011;4076;48.076;9.118;2023-03-05T12:01:47;14.03;;;8.80;;
8066;SDS011;4076;48.076;9.118;2023-03-05T12:04:15;13.87;;;11.13;;
8066;SDS011;4076;48.076;9.118;2023-03-05T12:06:49;16.97;;;11.13;;
8066;SDS011;4076;48.076;9.118;2023-03-05T12:12:00;12.63;;;7.20;;
8066;SDS011;4076;48.076;9.118;2023-03-05T12:14:41;10.23;;;6.87;;
8066;SDS011;4076;48.076;9.118;2023-03-05T12:17:14;8.63;;;6.63;;
8066;SDS011;4076;48.076;9.118;2023-03-05T12:20:12;10.80;;;7.10;;
8066;SDS011;4076;48.076;9.118;2023-03-05T12:22:39;11.33;;;6.40;;
8066;SDS011;4076;48.076;9.118;2023-03-05T12:27:52;10.07;;;7.20;;
8066;SDS011;4076;48.076;9.118;2023-03-05T12:33:03;10.13;;;5.93;;
8066;SDS011;4076;48.076;9.118;2023-03-05T12:35:39;9.60;;;7.00;;
8066;SDS011;4076;48.076;9.118;2023-03-05T12:38:12;12.37;;;7.43;;
8066;SDS011;4076;48.076;9.118;2023-03-05T12:40:42;9.00;;;7.10;;
8066;SDS011;4076;48.076;9.118;2023-03-05T12:43:26;9.53;;;7.30;;
8066;SDS011;4076;48.076;9.118;2023-03-05T12:45:52;10.50;;;6.00;;
8066;SDS011;4076;48.076;9.118;2023-03-05T12:48:49;10.13;;;6.67;;
8066;SDS011;4076;48.076;9.118;2023-03-05T12:51:26;8.60;;;6.33;;
8066;SDS011;4076;48.076;9.118;2023-03-05T12:53:58;10.00;;;7.77;;
8066;SDS011;4076;48.076;9.118;2023-03-05T12:56:45;11.23;;;6.43;;
8066;SDS011;4076;48.076;9.118;2023-03-05T12:59:11;9.43;;;6.40;;
8066;SDS011;4076;48.076;9.118;2023-03-05T13:04:18;12.17;;;6.70;;
8066;SDS011;4076;48.076;9.118;2023-03-05T13:06:58;6.90;;;5.10;;
8066;SDS011;4076;48.076;9.118;2023-03-05T13:09:29;10.73;;;6.93;;
8066;SDS011;4076;48.076;9.118;2023-03-05T13:11:59;10.77;;;7.03;;
8066;SDS011;4076;48.076;9.118;2023-03-05T13:19:58;9.97;;;5.63;;
8066;SDS011;4076;48.076;9.118;2023-03-05T13:22:25;8.93;;;5.90;;
8066;SDS011;4076;48.076;9.118;2023-03-05T13:27:37;11.30;;;6.83;;
8066;SDS011;4076;48.076;9.118;2023-03-05T13:30:03;9.00;;;5.07;;
8066;SDS011;4076;48.076;9.118;2023-03-05T13:32:30;8.47;;;6.20;;
8066;SDS011;4076;48.076;9.118;2023-03-05T13:34:58;12.53;;;6.30;;
8066;SDS011;4076;48.076;9.118;2023-03-05T13:37:26;9.70;;;6.50;;
8066;SDS011;4076;48.076;9.118;2023-03-05T13:39:56;9.90;;;6.63;;
8066;SDS011;4076;48.076;9.118;2023-03-05T13:42:31;6.23;;;4.03;;
8066;SDS011;4076;48.076;9.118;2023-03-05T13:47:51;9.30;;;6.70;;
8066;SDS011;4076;48.076;9.118;2023-03-05T13:53:16;10.80;;;6.67;;
8066;SDS011;4076;48.076;9.118;2023-03-05T13:55:53;5.80;;;4.40;;
8066;SDS011;4076;48.076;9.118;2023-03-05T14:03:53;10.40;;;6.77;;
8066;SDS011;4076;48.076;9.118;2023-03-05T14:06:45;8.60;;;4.77;;
8066;SDS011;4076;48.076;9.118;2023-03-05T14:12:14;4.70;;;3.43;;
8066;SDS011;4076;48.076;9.118;2023-03-05T14:15:01;6.40;;;4.10;;
8066;SDS011;4076;48.076;9.118;2023-03-05T14:22:59;10.00;;;6.60;;
8066;SDS011;4076;48.076;9.118;2023-03-05T14:25:29;7.80;;;6.07;;
8066;SDS011;4076;48.076;9.118;2023-03-05T14:30:44;10.20;;;5.67;;
8066;SDS011;4076;48.076;9.118;2023-03-05T14:33:11;10.23;;;6.90;;
8066;SDS011;4076;48.076;9.118;2023-03-05T14:35:37;11.90;;;5.23;;
8066;SDS011;4076;48.076;9.118;2023-03-05T14:38:04;9.67;;;5.40;;
8066;SDS011;4076;48.076;9.118;2023-03-05T14:40:32;7.17;;;4.03;;
8066;SDS011;4076;48.076;9.118;2023-03-05T14:43:05;7.10;;;5.07;;
8066;SDS011;4076;48.076;9.118;2023-03-05T14:45:38;6.10;;;4.30;;
8066;SDS011;4076;48.076;9.118;2023-03-05T14:48:07;7.17;;;3.83;;
8066;SDS011;4076;48.076;9.118;2023-03-05T14:50:36;7.07;;;5.93;;
8066;SDS011;4076;48.076;9.118;2023-03-05T14:53:21;8.27;;;5.60;;
8066;SDS011;4076;48.076;9.118;2023-03-05T14:55:50;5.97;;;3.97;;
8066;SDS011;4076;48.076;9.118;2023-03-05T14:58:21;6.57;;;4.47;;
8066;SDS011;4076;48.076;9.118;2023-03-05T15:00:50;8.77;;;4.83;;
8066;SDS011;4076;48.076;9.118;2023-03-05T15:03:17;11.57;;;8.20;;
8066;SDS011;4076;48.076;9.118;2023-03-05T15:05:44;8.10;;;5.93;;
8066;SDS011;4076;48.076;9.118;2023-03-05T15:08:12;8.60;;;6.13;;
8066;SDS011;4076;48.076;9.118;2023-03-05T15:10:40;5.90;;;3.67;;
8066;SDS011;4076;48.076;9.118;2023-03-05T15:13:05;8.13;;;4.90;;
8066;SDS011;4076;48.076;9.118;2023-03-05T15:15:32;8.40;;;4.40;;
8066;SDS011;4076;48.076;9.118;2023-03-05T15:17:57;9.43;;;5.80;;
8066;SDS011;4076;48.076;9.118;2023-03-05T15:20:24;7.23;;;5.20;;
8066;SDS011;4076;48.076;9.118;2023-03-05T15:22:51;7.83;;;5.40;;
8066;SDS011;4076;48.076;9.118;2023-03-05T15:25:18;7.43;;;5.90;;
8066;SDS011;4076;48.076;9.118;2023-03-05T15:27:45;6.10;;;4.20;;
8066;SDS011;4076;48.076;9.118;2023-03-05T15:30:32;10.93;;;5.33;;
8066;SDS011;4076;48.076;9.118;2023-03-05T15:33:00;6.70;;;5.10;;
8066;SDS011;4076;48.076;9.118;2023-03-05T15:35:27;8.40;;;5.10;;
8066;SDS011;4076;48.076;9.118;2023-03-05T15:37:53;8.80;;;5.50;;
8066;SDS011;4076;48.076;9.118;2023-03-05T15:40:19;5.93;;;4.33;;
8066;SDS011;4076;48.076;9.118;2023-03-05T15:42:45;8.17;;;5.77;;
8066;SDS011;4076;48.076;9.118;2023-03-05T15:45:11;6.83;;;5.37;;
8066;SDS011;4076;48.076;9.118;2023-03-05T15:47:37;9.90;;;5.80;;
8066;SDS011;4076;48.076;9.118;2023-03-05T15:50:03;9.40;;;5.20;;
8066;SDS011;4076;48.076;9.118;2023-03-05T15:52:29;9.73;;;4.63;;
8066;SDS011;4076;48.076;9.118;2023-03-05T15:54:54;8.10;;;5.20;;
8066;SDS011;4076;48.076;9.118;2023-03-05T15:57:20;8.70;;;5.50;;
8066;SDS011;4076;48.076;9.118;2023-03-05T15:59:46;7.70;;;4.93;;
8066;SDS011;4076;48.076;9.118;2023-03-05T16:02:12;8.57;;;5.73;;
8066;SDS011;4076;48.076;9.118;2023-03-05T16:04:38;7.67;;;4.57;;
8066;SDS011;4076;48.076;9.118;2023-03-05T16:07:04;5.73;;;4.77;;
8066;SDS011;4076;48.076;9.118;2023-03-05T16:09:35;5.80;;;4.40;;
8066;SDS011;4076;48.076;9.118;2023-03-05T16:12:06;10.60;;;5.23;;
8066;SDS011;4076;48.076;9.118;2023-03-05T16:14:36;8.20;;;5.73;;
8066;SDS011;4076;48.076;9.118;2023-03-05T16:17:03;13.17;;;8.63;;
8066;SDS011;4076;48.076;9.118;2023-03-05T16:19:29;6.17;;;5.17;;
8066;SDS011;4076;48.076;9.118;2023-03-05T16:21:58;6.60;;;5.50;;
8066;SDS011;4076;48.076;9.118;2023-03-05T16:24:23;9.70;;;5.87;;
8066;SDS011;4076;48.076;9.118;2023-03-05T16:26:49;7.50;;;4.27;;
8066;SDS011;4076;48.076;9.118;2023-03-05T16:29:14;9.00;;;5.20;;